sensor_id;sensor_type;location;lat;lon;timestamp;P1;durP1;ratioP1;P2;durP2;ratioP2
22205;SDS011;11272;50.104;8.754;2023-03-01T00:02:03;18.93;;;9.50;;
22205;SDS011;11272;50.104;8.754;2023-03-01T00:04:30;16.57;;;9.43;;
22205;SDS011;11272;50.104;8.754;2023-03-01T00:06:56;15.70;;;9.03;;
22205;SDS011;11272;50.104;8.754;2023-03-01T00:09:21;20.83;;;9.10;;
22205;SDS011;11272;50.104;8.754;2023-03-01T00:11:47;17.70;;;9.40;;
22205;SDS011;11272;50.104;8.754;2023-03-01T00:14:13;19.47;;;9.13;;
22205;SDS011;11272;50.104;8.754;2023-03-01T00:16:39;21.13;;;10.33;;
22205;SDS011;11272;50.104;8.754;2023-03-01T00:19:10;19.03;;;9.17;;
22205;SDS011;11272;50.104;8.754;2023-03-01T00:21:38;20.00;;;9.23;;
22205;SDS011;11272;50.104;8.754;2023-03-01T00:24:04;17.80;;;9.37;;
22205;SDS011;11272;50.104;8.754;2023-03-01T00:26:29;18.30;;;9.47;;
22205;SDS011;11272;50.104;8.754;2023-03-01T00:28:56;19.73;;;9.40;;
22205;SDS011;11272;50.104;8.754;2023-03-01T00:31:24;19.87;;;9.37;;
22205;SDS011;11272;50.104;8.754;2023-03-01T00:33:53;17.07;;;8.87;;
22205;SDS011;11272;50.104;8.754;2023-03-01T00:36:22;16.50;;;9.60;;
22205;SDS011;11272;50.104;8.754;2023-03-01T00:38:53;17.33;;;9.07;;
22205;SDS011;11272;50.104;8.754;2023-03-01T00:41:19;19.60;;;9.67;;
22205;SDS011;11272;50.104;8.754;2023-03-01T00:43:47;21.17;;;9.73;;
22205;SDS011;11272;50.104;8.754;2023-03-01T00:46:15;20.97;;;10.80;;
22205;SDS011;11272;50.104;8.754;2023-03-01T00:48:42;21.40;;;10.57;;
22205;SDS011;11272;50.104;8.754;2023-03-01T00:51:13;16.87;;;9.70;;
22205;SDS011;11272;50.104;8.754;2023-03-01T00:53:41;20.87;;;9.90;;
22205;SDS011;11272;50.104;8.754;2023-03-01T00:56:08;22.20;;;10.93;;
22205;SDS011;11272;50.104;8.754;2023-03-01T00:58:35;20.40;;;10.00;;
22205;SDS011;11272;50.104;8.754;2023-03-01T01:01:01;21.87;;;10.17;;
22205;SDS011;11272;50.104;8.754;2023-03-01T01:03:33;24.30;;;9.70;;
22205;SDS011;11272;50.104;8.754;2023-03-01T01:05:58;23.07;;;10.43;;
22205;SDS011;11272;50.104;8.754;2023-03-01T01:08:24;20.10;;;10.03;;
22205;SDS011;11272;50.104;8.754;2023-03-01T01:10:52;19.43;;;9.70;;
22205;SDS011;11272;50.104;8.754;2023-03-01T01:13:17;27.27;;;10.00;;
22205;SDS011;11272;50.104;8.754;2023-03-01T01:15:44;20.00;;;9.67;;
22205;SDS011;11272;50.104;8.754;2023-03-01T01:18:09;17.53;;;9.03;;
22205;SDS011;11272;50.104;8.754;2023-03-01T01:20:35;18.93;;;10.67;;
22205;SDS011;11272;50.104;8.754;2023-03-01T01:23:05;20.47;;;10.30;;
22205;SDS011;11272;50.104;8.754;2023-03-01T01:25:33;17.60;;;8.87;;
22205;SDS011;11272;50.104;8.754;2023-03-01T01:28:00;20.83;;;9.67;;
22205;SDS011;11272;50.104;8.754;2023-03-01T01:30:25;19.93;;;10.47;;
22205;SDS011;11272;50.104;8.754;2023-03-01T01:32:51;21.40;;;10.03;;
22205;SDS011;11272;50.104;8.754;2023-03-01T01:35:17;17.37;;;9.67;;
22205;SDS011;11272;50.104;8.754;2023-03-01T01:37:43;21.30;;;10.43;;
22205;SDS011;11272;50.104;8.754;2023-03-01T01:40:08;18.07;;;9.43;;
22205;SDS011;11272;50.104;8.754;2023-03-01T01:42:35;16.23;;;9.73;;
22205;SDS011;11272;50.104;8.754;2023-03-01T01:47:51;19.87;;;10.20;;
22205;SDS011;11272;50.104;8.754;2023-03-01T01:50:19;18.83;;;9.73;;
22205;SDS011;11272;50.104;8.754;2023-03-01T01:52:46;18.57;;;9.67;;
22205;SDS011;11272;50.104;8.754;2023-03-01T01:55:17;21.47;;;9.67;;
22205;SDS011;11272;50.104;8.754;2023-03-01T01:57:47;20.47;;;10.97;;
22205;SDS011;11272;50.104;8.754;2023-03-01T02:00:18;18.73;;;9.37;;
22205;SDS011;11272;50.104;8.754;2023-03-01T02:02:46;18.97;;;10.33;;
22205;SDS011;11272;50.104;8.754;2023-03-01T02:05:29;19.53;;;9.97;;
22205;SDS011;11272;50.104;8.754;2023-03-01T02:08:03;19.63;;;9.23;;
22205;SDS011;11272;50.104;8.754;2023-03-01T02:10:29;19.60;;;10.00;;
22205;SDS011;11272;50.104;8.754;2023-03-01T02:12:58;20.47;;;10.47;;
22205;SDS011;11272;50.104;8.754;2023-03-01T02:15:25;18.77;;;9.53;;
22205;SDS011;11272;50.104;8.754;2023-03-01T02:17:52;16.67;;;9.23;;
22205;SDS011;11272;50.104;8.754;2023-03-01T02:20:24;17.93;;;10.20;;
22205;SDS011;11272;50.104;8.754;2023-03-01T02:22:57;20.67;;;9.97;;
22205;SDS011;11272;50.104;8.754;2023-03-01T02:30:29;23.23;;;10.57;;
22205;SDS011;11272;50.104;8.754;2023-03-01T02:32:56;23.60;;;10.17;;
22205;SDS011;11272;50.104;8.754;2023-03-01T02:35:29;21.87;;;10.53;;
22205;SDS011;11272;50.104;8.754;2023-03-01T02:37:58;21.70;;;10.03;;
22205;SDS011;11272;50.104;8.754;2023-03-01T02:40:28;19.60;;;9.70;;
22205;SDS011;11272;50.104;8.754;2023-03-01T02:42:56;16.47;;;9.30;;
22205;SDS011;11272;50.104;8.754;2023-03-01T02:45:25;21.43;;;10.83;;
22205;SDS011;11272;50.104;8.754;2023-03-01T02:47:55;21.10;;;10.70;;
22205;SDS011;11272;50.104;8.754;2023-03-01T02:50:25;20.27;;;10.57;;
22205;SDS011;11272;50.104;8.754;2023-03-01T02:53:01;19.73;;;10.30;;
22205;SDS011;11272;50.104;8.754;2023-03-01T02:55:36;18.73;;;9.73;;
22205;SDS011;11272;50.104;8.754;2023-03-01T02:58:02;21.03;;;10.10;;
22205;SDS011;11272;50.104;8.754;2023-03-01T03:00:32;20.80;;;11.10;;
22205;SDS011;11272;50.104;8.754;2023-03-01T03:03:12;19.40;;;10.67;;
22205;SDS011;11272;50.104;8.754;2023-03-01T03:05:39;21.00;;;10.47;;
22205;SDS011;11272;50.104;8.754;2023-03-01T03:08:05;18.90;;;10.47;;
22205;SDS011;11272;50.104;8.754;2023-03-01T03:10:35;20.70;;;10.60;;
22205;SDS011;11272;50.104;8.754;2023-03-01T03:13:06;21.00;;;10.63;;
22205;SDS011;11272;50.104;8.754;2023-03-01T03:15:33;19.87;;;10.63;;
22205;SDS011;11272;50.104;8.754;2023-03-01T03:18:01;23.70;;;11.00;;
22205;SDS011;11272;50.104;8.754;2023-03-01T03:20:29;21.20;;;10.83;;
22205;SDS011;11272;50.104;8.754;2023-03-01T03:22:56;22.90;;;11.30;;
22205;SDS011;11272;50.104;8.754;2023-03-01T03:25:23;20.83;;;10.90;;
22205;SDS011;11272;50.104;8.754;2023-03-01T03:27:50;21.60;;;10.53;;
22205;SDS011;11272;50.104;8.754;2023-03-01T03:30:32;23.40;;;11.67;;
22205;SDS011;11272;50.104;8.754;2023-03-01T03:32:58;21.37;;;11.47;;
22205;SDS011;11272;50.104;8.754;2023-03-01T03:35:25;24.63;;;12.77;;
22205;SDS011;11272;50.104;8.754;2023-03-01T03:37:56;26.37;;;12.13;;
22205;SDS011;11272;50.104;8.754;2023-03-01T03:40:32;22.33;;;11.57;;
22205;SDS011;11272;50.104;8.754;2023-03-01T03:43:06;25.40;;;11.97;;
22205;SDS011;11272;50.104;8.754;2023-03-01T03:45:35;24.00;;;12.37;;
22205;SDS011;11272;50.104;8.754;2023-03-01T03:48:02;23.43;;;12.30;;
22205;SDS011;11272;50.104;8.754;2023-03-01T03:50:30;23.70;;;12.03;;
22205;SDS011;11272;50.104;8.754;2023-03-01T03:52:56;23.33;;;12.23;;
22205;SDS011;11272;50.104;8.754;2023-03-01T03:55:21;24.07;;;11.40;;
22205;SDS011;11272;50.104;8.754;2023-03-01T03:57:48;23.97;;;11.57;;
22205;SDS011;11272;50.104;8.754;2023-03-01T04:00:19;24.37;;;11.50;;
22205;SDS011;11272;50.104;8.754;2023-03-01T04:02:47;27.77;;;11.77;;
22205;SDS011;11272;50.104;8.754;2023-03-01T04:05:14;22.13;;;11.33;;
22205;SDS011;11272;50.104;8.754;2023-03-01T04:07:41;27.27;;;10.90;;
22205;SDS011;11272;50.104;8.754;2023-03-01T04:10:14;22.43;;;10.90;;
22205;SDS011;11272;50.104;8.754;2023-03-01T04:12:42;22.87;;;11.00;;
22205;SDS011;11272;50.104;8.754;2023-03-01T04:15:08;22.30;;;10.73;;
22205;SDS011;11272;50.104;8.754;2023-03-01T04:17:43;20.67;;;11.37;;
22205;SDS011;11272;50.104;8.754;2023-03-01T04:20:10;22.50;;;11.43;;
22205;SDS011;11272;50.104;8.754;2023-03-01T04:22:38;20.57;;;10.90;;
22205;SDS011;11272;50.104;8.754;2023-03-01T04:25:04;22.83;;;10.90;;
22205;SDS011;11272;50.104;8.754;2023-03-01T04:27:34;24.83;;;11.90;;
22205;SDS011;11272;50.104;8.754;2023-03-01T04:30:05;25.10;;;12.57;;
22205;SDS011;11272;50.104;8.754;2023-03-01T04:32:31;23.47;;;11.70;;
22205;SDS011;11272;50.104;8.754;2023-03-01T04:34:57;21.60;;;11.63;;
22205;SDS011;11272;50.104;8.754;2023-03-01T04:37:22;22.67;;;11.07;;
22205;SDS011;11272;50.104;8.754;2023-03-01T04:39:49;19.97;;;10.83;;
22205;SDS011;11272;50.104;8.754;2023-03-01T04:42:14;23.10;;;11.47;;
22205;SDS011;11272;50.104;8.754;2023-03-01T04:44:40;23.93;;;11.37;;
22205;SDS011;11272;50.104;8.754;2023-03-01T04:47:06;26.23;;;12.07;;
22205;SDS011;11272;50.104;8.754;2023-03-01T04:49:31;24.57;;;11.80;;
22205;SDS011;11272;50.104;8.754;2023-03-01T04:51:57;25.53;;;12.30;;
22205;SDS011;11272;50.104;8.754;2023-03-01T04:54:30;24.97;;;11.33;;
22205;SDS011;11272;50.104;8.754;2023-03-01T04:56:57;22.37;;;11.40;;
22205;SDS011;11272;50.104;8.754;2023-03-01T04:59:24;22.63;;;11.10;;
22205;SDS011;11272;50.104;8.754;2023-03-01T05:01:51;22.20;;;11.43;;
22205;SDS011;11272;50.104;8.754;2023-03-01T05:04:24;23.63;;;11.73;;
22205;SDS011;11272;50.104;8.754;2023-03-01T05:06:50;24.37;;;11.60;;
22205;SDS011;11272;50.104;8.754;2023-03-01T05:09:16;25.37;;;12.23;;
22205;SDS011;11272;50.104;8.754;2023-03-01T05:11:42;26.10;;;12.10;;
22205;SDS011;11272;50.104;8.754;2023-03-01T05:14:09;23.77;;;11.70;;
22205;SDS011;11272;50.104;8.754;2023-03-01T05:16:35;24.40;;;11.50;;
22205;SDS011;11272;50.104;8.754;2023-03-01T05:19:01;23.03;;;11.57;;
22205;SDS011;11272;50.104;8.754;2023-03-01T05:21:37;24.57;;;12.40;;
22205;SDS011;11272;50.104;8.754;2023-03-01T05:24:23;22.07;;;11.40;;
22205;SDS011;11272;50.104;8.754;2023-03-01T05:26:49;24.40;;;11.60;;
22205;SDS011;11272;50.104;8.754;2023-03-01T05:29:17;23.30;;;11.70;;
22205;SDS011;11272;50.104;8.754;2023-03-01T05:34:30;24.97;;;11.50;;
22205;SDS011;11272;50.104;8.754;2023-03-01T05:37:00;25.67;;;12.30;;
22205;SDS011;11272;50.104;8.754;2023-03-01T05:39:27;22.03;;;11.60;;
22205;SDS011;11272;50.104;8.754;2023-03-01T05:41:54;22.80;;;11.30;;
22205;SDS011;11272;50.104;8.754;2023-03-01T05:44:22;24.13;;;12.47;;
22205;SDS011;11272;50.104;8.754;2023-03-01T05:46:49;25.37;;;11.80;;
22205;SDS011;11272;50.104;8.754;2023-03-01T05:49:15;24.50;;;12.17;;
22205;SDS011;11272;50.104;8.754;2023-03-01T05:51:41;22.93;;;11.03;;
22205;SDS011;11272;50.104;8.754;2023-03-01T05:54:08;27.13;;;11.37;;
22205;SDS011;11272;50.104;8.754;2023-03-01T05:56:35;23.80;;;12.33;;
22205;SDS011;11272;50.104;8.754;2023-03-01T05:59:02;25.53;;;11.83;;
22205;SDS011;11272;50.104;8.754;2023-03-01T06:01:30;25.27;;;12.47;;
22205;SDS011;11272;50.104;8.754;2023-03-01T06:03:57;22.60;;;11.10;;
22205;SDS011;11272;50.104;8.754;2023-03-01T06:06:23;27.70;;;13.37;;
22205;SDS011;11272;50.104;8.754;2023-03-01T06:08:49;22.90;;;11.53;;
22205;SDS011;11272;50.104;8.754;2023-03-01T06:11:16;24.27;;;11.67;;
22205;SDS011;11272;50.104;8.754;2023-03-01T06:13:42;27.37;;;11.73;;
22205;SDS011;11272;50.104;8.754;2023-03-01T06:16:08;25.23;;;11.93;;
22205;SDS011;11272;50.104;8.754;2023-03-01T06:18:35;29.83;;;12.27;;
22205;SDS011;11272;50.104;8.754;2023-03-01T06:21:02;25.93;;;12.57;;
22205;SDS011;11272;50.104;8.754;2023-03-01T06:23:28;24.33;;;11.87;;
22205;SDS011;11272;50.104;8.754;2023-03-01T06:25:54;28.50;;;12.93;;
22205;SDS011;11272;50.104;8.754;2023-03-01T06:28:19;25.43;;;12.43;;
22205;SDS011;11272;50.104;8.754;2023-03-01T06:30:45;27.73;;;11.60;;
22205;SDS011;11272;50.104;8.754;2023-03-01T06:33:11;25.40;;;12.37;;
22205;SDS011;11272;50.104;8.754;2023-03-01T06:35:37;24.03;;;12.27;;
22205;SDS011;11272;50.104;8.754;2023-03-01T06:38:05;26.37;;;12.60;;
22205;SDS011;11272;50.104;8.754;2023-03-01T06:40:31;24.30;;;12.57;;
22205;SDS011;11272;50.104;8.754;2023-03-01T06:42:57;23.17;;;11.90;;
22205;SDS011;11272;50.104;8.754;2023-03-01T06:45:23;25.93;;;13.37;;
22205;SDS011;11272;50.104;8.754;2023-03-01T06:47:49;25.33;;;12.53;;
22205;SDS011;11272;50.104;8.754;2023-03-01T06:50:16;25.13;;;11.47;;
22205;SDS011;11272;50.104;8.754;2023-03-01T06:52:43;24.50;;;11.63;;
22205;SDS011;11272;50.104;8.754;2023-03-01T06:55:10;22.40;;;11.33;;
22205;SDS011;11272;50.104;8.754;2023-03-01T06:57:39;25.83;;;11.67;;
22205;SDS011;11272;50.104;8.754;2023-03-01T07:00:05;24.23;;;11.43;;
22205;SDS011;11272;50.104;8.754;2023-03-01T07:05:21;23.83;;;11.50;;
22205;SDS011;11272;50.104;8.754;2023-03-01T07:13:38;18.83;;;10.50;;
22205;SDS011;11272;50.104;8.754;2023-03-01T07:16:05;21.60;;;11.30;;
22205;SDS011;11272;50.104;8.754;2023-03-01T07:21:27;23.83;;;11.30;;
22205;SDS011;11272;50.104;8.754;2023-03-01T08:21:05;21.80;;;12.00;;
22205;SDS011;11272;50.104;8.754;2023-03-01T08:23:41;24.93;;;13.07;;
22205;SDS011;11272;50.104;8.754;2023-03-01T08:28:42;20.30;;;11.40;;
22205;SDS011;11272;50.104;8.754;2023-03-01T08:33:57;20.10;;;11.33;;
22205;SDS011;11272;50.104;8.754;2023-03-01T08:36:45;20.13;;;12.27;;
22205;SDS011;11272;50.104;8.754;2023-03-01T08:39:15;17.73;;;11.13;;
22205;SDS011;11272;50.104;8.754;2023-03-01T08:41:43;20.60;;;12.23;;
22205;SDS011;11272;50.104;8.754;2023-03-01T08:44:09;25.43;;;11.97;;
22205;SDS011;11272;50.104;8.754;2023-03-01T08:46:38;19.37;;;11.43;;
22205;SDS011;11272;50.104;8.754;2023-03-01T08:49:06;18.10;;;11.53;;
22205;SDS011;11272;50.104;8.754;2023-03-01T08:54:32;20.80;;;11.83;;
22205;SDS011;11272;50.104;8.754;2023-03-01T08:56:57;17.73;;;12.03;;
22205;SDS011;11272;50.104;8.754;2023-03-01T08:59:25;21.53;;;11.97;;
22205;SDS011;11272;50.104;8.754;2023-03-01T09:01:51;18.87;;;11.57;;
22205;SDS011;11272;50.104;8.754;2023-03-01T09:04:16;19.33;;;12.10;;
22205;SDS011;11272;50.104;8.754;2023-03-01T09:12:08;17.03;;;10.83;;
22205;SDS011;11272;50.104;8.754;2023-03-01T09:14:34;17.33;;;11.50;;
22205;SDS011;11272;50.104;8.754;2023-03-01T09:17:02;17.10;;;11.60;;
22205;SDS011;11272;50.104;8.754;2023-03-01T09:19:29;19.67;;;12.03;;
22205;SDS011;11272;50.104;8.754;2023-03-01T09:30:15;18.63;;;12.23;;
22205;SDS011;11272;50.104;8.754;2023-03-01T09:32:41;17.67;;;11.97;;
22205;SDS011;11272;50.104;8.754;2023-03-01T09:35:08;19.20;;;12.53;;
22205;SDS011;11272;50.104;8.754;2023-03-01T09:37:35;18.67;;;12.00;;
22205;SDS011;11272;50.104;8.754;2023-03-01T09:40:06;19.47;;;12.43;;
22205;SDS011;11272;50.104;8.754;2023-03-01T09:42:45;21.70;;;12.57;;
22205;SDS011;11272;50.104;8.754;2023-03-01T09:54:19;18.03;;;11.63;;
22205;SDS011;11272;50.104;8.754;2023-03-01T09:57:05;18.37;;;12.00;;
22205;SDS011;11272;50.104;8.754;2023-03-01T10:07:56;16.83;;;12.07;;
22205;SDS011;11272;50.104;8.754;2023-03-01T10:10:36;17.93;;;12.03;;
22205;SDS011;11272;50.104;8.754;2023-03-01T10:13:13;17.10;;;12.03;;
22205;SDS011;11272;50.104;8.754;2023-03-01T10:15:44;17.43;;;11.97;;
22205;SDS011;11272;50.104;8.754;2023-03-01T10:21:25;16.30;;;12.03;;
22205;SDS011;11272;50.104;8.754;2023-03-01T10:26:48;17.70;;;12.23;;
22205;SDS011;11272;50.104;8.754;2023-03-01T10:32:36;17.93;;;11.27;;
22205;SDS011;11272;50.104;8.754;2023-03-01T10:38:11;15.23;;;11.77;;
22205;SDS011;11272;50.104;8.754;2023-03-01T10:43:18;14.17;;;10.87;;
22205;SDS011;11272;50.104;8.754;2023-03-01T10:45:44;16.07;;;11.13;;
22205;SDS011;11272;50.104;8.754;2023-03-01T10:48:18;15.83;;;11.40;;
22205;SDS011;11272;50.104;8.754;2023-03-01T10:50:45;15.33;;;11.60;;
22205;SDS011;11272;50.104;8.754;2023-03-01T10:56:08;15.77;;;11.27;;
22205;SDS011;11272;50.104;8.754;2023-03-01T11:04:27;14.43;;;10.47;;
22205;SDS011;11272;50.104;8.754;2023-03-01T11:06:59;14.87;;;10.20;;
22205;SDS011;11272;50.104;8.754;2023-03-01T11:09:26;14.67;;;10.17;;
22205;SDS011;11272;50.104;8.754;2023-03-01T11:12:03;16.33;;;10.30;;
22205;SDS011;11272;50.104;8.754;2023-03-01T11:14:32;13.97;;;10.23;;
22205;SDS011;11272;50.104;8.754;2023-03-01T11:22:53;13.67;;;10.13;;
22205;SDS011;11272;50.104;8.754;2023-03-01T11:28:16;15.57;;;9.90;;
22205;SDS011;11272;50.104;8.754;2023-03-01T11:31:06;13.43;;;9.73;;
22205;SDS011;11272;50.104;8.754;2023-03-01T12:10:26;12.67;;;9.80;;
22205;SDS011;11272;50.104;8.754;2023-03-01T12:51:28;12.73;;;9.47;;
22205;SDS011;11272;50.104;8.754;2023-03-01T12:53:57;13.43;;;9.20;;
22205;SDS011;11272;50.104;8.754;2023-03-01T14:15:37;14.67;;;7.27;;
22205;SDS011;11272;50.104;8.754;2023-03-01T14:20:57;11.80;;;6.90;;
22205;SDS011;11272;50.104;8.754;2023-03-01T14:23:33;9.43;;;6.33;;
22205;SDS011;11272;50.104;8.754;2023-03-01T14:26:01;9.77;;;7.13;;
22205;SDS011;11272;50.104;8.754;2023-03-01T14:28:28;11.27;;;7.87;;
22205;SDS011;11272;50.104;8.754;2023-03-01T14:30:58;12.30;;;7.13;;
22205;SDS011;11272;50.104;8.754;2023-03-01T14:36:14;12.53;;;6.97;;
22205;SDS011;11272;50.104;8.754;2023-03-01T14:41:09;11.73;;;7.40;;
22205;SDS011;11272;50.104;8.754;2023-03-01T14:43:47;16.07;;;7.83;;
22205;SDS011;11272;50.104;8.754;2023-03-01T14:46:17;11.30;;;7.20;;
22205;SDS011;11272;50.104;8.754;2023-03-01T14:51:55;10.80;;;7.60;;
22205;SDS011;11272;50.104;8.754;2023-03-01T15:05:41;13.47;;;7.20;;
22205;SDS011;11272;50.104;8.754;2023-03-01T15:32:32;12.33;;;7.63;;
22205;SDS011;11272;50.104;8.754;2023-03-01T15:35:32;12.17;;;7.77;;
22205;SDS011;11272;50.104;8.754;2023-03-01T15:40:53;14.43;;;7.80;;
22205;SDS011;11272;50.104;8.754;2023-03-01T16:09:53;17.83;;;8.47;;
22205;SDS011;11272;50.104;8.754;2023-03-01T16:17:51;17.10;;;8.30;;
22205;SDS011;11272;50.104;8.754;2023-03-01T16:23:17;11.77;;;7.50;;
22205;SDS011;11272;50.104;8.754;2023-03-01T16:25:44;16.73;;;8.63;;
22205;SDS011;11272;50.104;8.754;2023-03-01T16:28:09;21.13;;;9.70;;
22205;SDS011;11272;50.104;8.754;2023-03-01T17:11:29;12.80;;;8.13;;
22205;SDS011;11272;50.104;8.754;2023-03-01T17:20:00;17.93;;;8.63;;
22205;SDS011;11272;50.104;8.754;2023-03-01T17:36:31;15.97;;;8.77;;
22205;SDS011;11272;50.104;8.754;2023-03-01T17:44:50;16.53;;;9.33;;
22205;SDS011;11272;50.104;8.754;2023-03-01T17:47:16;20.23;;;8.97;;
22205;SDS011;11272;50.104;8.754;2023-03-01T17:49:41;19.10;;;9.00;;
22205;SDS011;11272;50.104;8.754;2023-03-01T17:52:07;15.50;;;8.40;;
22205;SDS011;11272;50.104;8.754;2023-03-01T18:03:20;14.87;;;8.70;;
22205;SDS011;11272;50.104;8.754;2023-03-01T18:05:46;17.13;;;9.30;;
22205;SDS011;11272;50.104;8.754;2023-03-01T18:14:06;18.57;;;9.37;;
22205;SDS011;11272;50.104;8.754;2023-03-01T18:16:33;20.80;;;9.37;;
22205;SDS011;11272;50.104;8.754;2023-03-01T18:19:00;16.77;;;8.93;;
22205;SDS011;11272;50.104;8.754;2023-03-01T18:21:29;15.27;;;9.37;;
22205;SDS011;11272;50.104;8.754;2023-03-01T18:23:55;19.60;;;9.30;;
22205;SDS011;11272;50.104;8.754;2023-03-01T18:26:21;18.73;;;9.43;;
22205;SDS011;11272;50.104;8.754;2023-03-01T18:28:49;17.30;;;8.90;;
22205;SDS011;11272;50.104;8.754;2023-03-01T18:31:16;20.27;;;9.10;;
22205;SDS011;11272;50.104;8.754;2023-03-01T18:33:46;18.73;;;10.03;;
22205;SDS011;11272;50.104;8.754;2023-03-01T18:36:17;19.87;;;10.20;;
22205;SDS011;11272;50.104;8.754;2023-03-01T18:38:45;18.90;;;9.80;;
22205;SDS011;11272;50.104;8.754;2023-03-01T18:41:12;18.63;;;10.70;;
22205;SDS011;11272;50.104;8.754;2023-03-01T18:43:37;16.90;;;9.03;;
22205;SDS011;11272;50.104;8.754;2023-03-01T18:46:03;17.87;;;9.77;;
22205;SDS011;11272;50.104;8.754;2023-03-01T18:48:29;19.03;;;8.80;;
22205;SDS011;11272;50.104;8.754;2023-03-01T18:50:55;16.90;;;9.30;;
22205;SDS011;11272;50.104;8.754;2023-03-01T18:53:22;17.27;;;9.77;;
22205;SDS011;11272;50.104;8.754;2023-03-01T18:55:47;19.63;;;9.17;;
22205;SDS011;11272;50.104;8.754;2023-03-01T18:58:13;18.00;;;8.80;;
22205;SDS011;11272;50.104;8.754;2023-03-01T19:00:38;17.90;;;9.53;;
22205;SDS011;11272;50.104;8.754;2023-03-01T19:03:04;19.80;;;9.50;;
22205;SDS011;11272;50.104;8.754;2023-03-01T19:05:30;15.73;;;8.50;;
22205;SDS011;11272;50.104;8.754;2023-03-01T19:07:59;17.80;;;10.07;;
22205;SDS011;11272;50.104;8.754;2023-03-01T19:10:24;21.00;;;9.30;;
22205;SDS011;11272;50.104;8.754;2023-03-01T19:12:50;22.30;;;9.83;;
22205;SDS011;11272;50.104;8.754;2023-03-01T19:15:19;20.57;;;9.20;;
22205;SDS011;11272;50.104;8.754;2023-03-01T19:17:44;23.27;;;9.90;;
22205;SDS011;11272;50.104;8.754;2023-03-01T19:20:10;19.77;;;9.60;;
22205;SDS011;11272;50.104;8.754;2023-03-01T19:22:36;19.93;;;10.00;;
22205;SDS011;11272;50.104;8.754;2023-03-01T19:25:02;18.63;;;9.27;;
22205;SDS011;11272;50.104;8.754;2023-03-01T19:27:28;19.40;;;8.97;;
22205;SDS011;11272;50.104;8.754;2023-03-01T19:29:53;17.93;;;8.90;;
22205;SDS011;11272;50.104;8.754;2023-03-01T19:32:19;19.90;;;9.80;;
22205;SDS011;11272;50.104;8.754;2023-03-01T19:34:45;18.93;;;9.90;;
22205;SDS011;11272;50.104;8.754;2023-03-01T19:37:11;19.47;;;9.60;;
22205;SDS011;11272;50.104;8.754;2023-03-01T19:39:37;18.13;;;9.97;;
22205;SDS011;11272;50.104;8.754;2023-03-01T19:42:02;19.50;;;9.17;;
22205;SDS011;11272;50.104;8.754;2023-03-01T19:44:28;18.87;;;9.37;;
22205;SDS011;11272;50.104;8.754;2023-03-01T19:46:55;19.77;;;9.93;;
22205;SDS011;11272;50.104;8.754;2023-03-01T19:49:24;22.10;;;10.27;;
22205;SDS011;11272;50.104;8.754;2023-03-01T19:51:53;21.20;;;10.33;;
22205;SDS011;11272;50.104;8.754;2023-03-01T19:54:19;19.67;;;9.90;;
22205;SDS011;11272;50.104;8.754;2023-03-01T19:56:46;19.43;;;9.70;;
22205;SDS011;11272;50.104;8.754;2023-03-01T19:59:17;16.97;;;9.37;;
22205;SDS011;11272;50.104;8.754;2023-03-01T20:01:48;22.33;;;10.23;;
22205;SDS011;11272;50.104;8.754;2023-03-01T20:04:14;17.73;;;8.93;;
22205;SDS011;11272;50.104;8.754;2023-03-01T20:06:43;18.73;;;9.33;;
22205;SDS011;11272;50.104;8.754;2023-03-01T20:09:10;16.50;;;8.50;;
22205;SDS011;11272;50.104;8.754;2023-03-01T20:11:38;18.57;;;9.20;;
22205;SDS011;11272;50.104;8.754;2023-03-01T20:14:04;18.10;;;9.50;;
22205;SDS011;11272;50.104;8.754;2023-03-01T20:16:35;19.53;;;9.53;;
22205;SDS011;11272;50.104;8.754;2023-03-01T20:19:01;18.97;;;9.37;;
22205;SDS011;11272;50.104;8.754;2023-03-01T20:21:27;20.00;;;9.10;;
22205;SDS011;11272;50.104;8.754;2023-03-01T20:23:53;16.50;;;8.90;;
22205;SDS011;11272;50.104;8.754;2023-03-01T20:26:19;19.37;;;9.60;;
22205;SDS011;11272;50.104;8.754;2023-03-01T20:28:49;18.40;;;9.47;;
22205;SDS011;11272;50.104;8.754;2023-03-01T20:31:16;19.67;;;10.17;;
22205;SDS011;11272;50.104;8.754;2023-03-01T20:33:43;19.30;;;9.70;;
22205;SDS011;11272;50.104;8.754;2023-03-01T20:36:09;15.40;;;9.07;;
22205;SDS011;11272;50.104;8.754;2023-03-01T20:38:36;18.53;;;9.93;;
22205;SDS011;11272;50.104;8.754;2023-03-01T20:41:04;19.17;;;9.37;;
22205;SDS011;11272;50.104;8.754;2023-03-01T20:43:32;20.80;;;9.37;;
22205;SDS011;11272;50.104;8.754;2023-03-01T20:46:02;18.03;;;9.67;;
22205;SDS011;11272;50.104;8.754;2023-03-01T20:48:31;19.33;;;10.00;;
22205;SDS011;11272;50.104;8.754;2023-03-01T20:50:57;21.10;;;9.93;;
22205;SDS011;11272;50.104;8.754;2023-03-01T20:53:27;21.30;;;10.23;;
22205;SDS011;11272;50.104;8.754;2023-03-01T20:55:53;17.80;;;9.97;;
22205;SDS011;11272;50.104;8.754;2023-03-01T20:58:19;20.10;;;9.53;;
22205;SDS011;11272;50.104;8.754;2023-03-01T21:00:48;18.50;;;8.93;;
22205;SDS011;11272;50.104;8.754;2023-03-01T21:03:15;17.77;;;9.30;;
22205;SDS011;11272;50.104;8.754;2023-03-01T21:05:41;19.00;;;9.83;;
22205;SDS011;11272;50.104;8.754;2023-03-01T21:08:06;18.57;;;9.53;;
22205;SDS011;11272;50.104;8.754;2023-03-01T21:10:32;20.67;;;10.17;;
22205;SDS011;11272;50.104;8.754;2023-03-01T21:12:57;20.13;;;9.80;;
22205;SDS011;11272;50.104;8.754;2023-03-01T21:15:23;19.17;;;9.70;;
22205;SDS011;11272;50.104;8.754;2023-03-01T21:17:48;22.20;;;10.37;;
22205;SDS011;11272;50.104;8.754;2023-03-01T21:20:16;22.03;;;9.57;;
22205;SDS011;11272;50.104;8.754;2023-03-01T21:22:44;16.93;;;9.87;;
22205;SDS011;11272;50.104;8.754;2023-03-01T21:25:10;19.17;;;10.03;;
22205;SDS011;11272;50.104;8.754;2023-03-01T21:27:36;16.23;;;10.07;;
22205;SDS011;11272;50.104;8.754;2023-03-01T21:30:03;18.77;;;9.07;;
22205;SDS011;11272;50.104;8.754;2023-03-01T21:32:29;20.40;;;10.07;;
22205;SDS011;11272;50.104;8.754;2023-03-01T21:34:56;18.37;;;9.80;;
22205;SDS011;11272;50.104;8.754;2023-03-01T21:37:23;19.03;;;9.60;;
22205;SDS011;11272;50.104;8.754;2023-03-01T21:39:52;19.23;;;9.70;;
22205;SDS011;11272;50.104;8.754;2023-03-01T21:42:17;20.20;;;10.33;;
22205;SDS011;11272;50.104;8.754;2023-03-01T21:44:43;21.83;;;10.67;;
22205;SDS011;11272;50.104;8.754;2023-03-01T21:47:08;19.10;;;10.43;;
22205;SDS011;11272;50.104;8.754;2023-03-01T21:49:36;21.60;;;10.43;;
22205;SDS011;11272;50.104;8.754;2023-03-01T21:52:02;19.47;;;9.83;;
22205;SDS011;11272;50.104;8.754;2023-03-01T21:54:29;23.63;;;10.40;;
22205;SDS011;11272;50.104;8.754;2023-03-01T21:56:54;18.47;;;9.60;;
22205;SDS011;11272;50.104;8.754;2023-03-01T21:59:21;17.97;;;9.63;;
22205;SDS011;11272;50.104;8.754;2023-03-01T22:01:48;24.00;;;11.13;;
22205;SDS011;11272;50.104;8.754;2023-03-01T22:04:15;18.03;;;9.27;;
22205;SDS011;11272;50.104;8.754;2023-03-01T22:06:43;21.97;;;10.77;;
22205;SDS011;11272;50.104;8.754;2023-03-01T22:09:18;20.17;;;9.50;;
22205;SDS011;11272;50.104;8.754;2023-03-01T22:11:46;20.33;;;9.80;;
22205;SDS011;11272;50.104;8.754;2023-03-01T22:14:18;20.73;;;10.27;;
22205;SDS011;11272;50.104;8.754;2023-03-01T22:16:45;21.60;;;10.20;;
22205;SDS011;11272;50.104;8.754;2023-03-01T22:19:12;22.23;;;10.53;;
22205;SDS011;11272;50.104;8.754;2023-03-01T22:21:43;15.83;;;9.20;;
22205;SDS011;11272;50.104;8.754;2023-03-01T22:24:10;23.83;;;11.10;;